FDX2329 KMEM-KLAX
Flight info
| Callsign | FDX2329 |
|---|---|
| Flight time | 3h 42m |
| Altitude | 38000 |
| Route | DUCKZ5 HELAR KLUBB TCC DRK GABBL HLYWD1 |
| Aircraft | MD11/H-SDE1E2E3FGHIJ2J3J4J5M1RWXY/LB1D1 |
Departure
| Time | 2026-04-26 08:56 |
|---|---|
| Airport | Memphis International Airport (KMEM) |
Arrival
| Time | 2026-04-26 12:38 |
|---|---|
| Airport | Los Angeles International Airport (KLAX) |
| Time | Latitude | Longitude | Altitude | Speed | Heading |
|---|---|---|---|---|---|
| 2026-04-26 08:43 | 35.05987 | -89.96876 | 269 ft | 0 kts | 2° |
| 2026-04-26 08:47 | 35.05984 | -89.96877 | 269 ft | 2 kts | 1° |
| 2026-04-26 08:47 | 35.05969 | -89.96874 | 269 ft | 2 kts | 343° |
| 2026-04-26 08:47 | 35.05955 | -89.96867 | 269 ft | 2 kts | 330° |
| 2026-04-26 08:48 | 35.05943 | -89.96858 | 269 ft | 2 kts | 317° |
| 2026-04-26 08:48 | 35.05933 | -89.96844 | 269 ft | 2 kts | 303° |
| 2026-04-26 08:48 | 35.05926 | -89.96828 | 269 ft | 2 kts | 290° |
| 2026-04-26 08:48 | 35.05923 | -89.96810 | 269 ft | 2 kts | 276° |
| 2026-04-26 08:49 | 35.05922 | -89.96793 | 269 ft | 0 kts | 270° |
| 2026-04-26 08:49 | 35.05922 | -89.96792 | 269 ft | 0 kts | 270° |
| 2026-04-26 08:51 | 35.05922 | -89.96805 | 269 ft | 2 kts | 271° |
| 2026-04-26 08:51 | 35.05923 | -89.96838 | 269 ft | 5 kts | 271° |
| 2026-04-26 08:51 | 35.05923 | -89.96857 | 269 ft | 6 kts | 271° |
| 2026-04-26 08:52 | 35.05924 | -89.96896 | 269 ft | 7 kts | 271° |
| 2026-04-26 08:52 | 35.05925 | -89.96970 | 269 ft | 9 kts | 271° |
| 2026-04-26 08:52 | 35.05927 | -89.97065 | 268 ft | 13 kts | 271° |
| 2026-04-26 08:52 | 35.05894 | -89.97160 | 268 ft | 12 kts | 214° |
| 2026-04-26 08:53 | 35.05813 | -89.97183 | 270 ft | 11 kts | 185° |
| 2026-04-26 08:53 | 35.05730 | -89.97188 | 271 ft | 12 kts | 182° |
| 2026-04-26 08:53 | 35.05654 | -89.97216 | 273 ft | 10 kts | 216° |
| 2026-04-26 08:53 | 35.05604 | -89.97285 | 274 ft | 11 kts | 235° |
| 2026-04-26 08:54 | 35.05558 | -89.97370 | 274 ft | 13 kts | 237° |
| 2026-04-26 08:54 | 35.05506 | -89.97467 | 275 ft | 13 kts | 237° |
| 2026-04-26 08:54 | 35.05456 | -89.97573 | 275 ft | 15 kts | 243° |
| 2026-04-26 08:54 | 35.05416 | -89.97610 | 276 ft | 0 kts | 188° |
| 2026-04-26 08:55 | 35.05405 | -89.97611 | 276 ft | 14 kts | 185° |
| 2026-04-26 08:55 | 35.05052 | -89.97611 | 285 ft | 85 kts | 178° |
| 2026-04-26 08:55 | 35.04252 | -89.97595 | 304 ft | 144 kts | 179° |
| 2026-04-26 08:55 | 35.03065 | -89.97562 | 331 ft | 193 kts | 177° |
| 2026-04-26 08:56 | 35.01672 | -89.97503 | 834 ft | 194 kts | 179° |
| 2026-04-26 08:56 | 35.00820 | -89.97470 | 1373 ft | 187 kts | 177° |
| 2026-04-26 08:56 | 34.99130 | -89.97678 | 2192 ft | 184 kts | 198° |
| 2026-04-26 08:56 | 34.97968 | -89.98313 | 2626 ft | 184 kts | 208° |
| 2026-04-26 08:57 | 34.96858 | -89.99134 | 3030 ft | 188 kts | 211° |
| 2026-04-26 08:57 | 34.95749 | -90.00018 | 3454 ft | 191 kts | 212° |
| 2026-04-26 08:57 | 34.94644 | -90.01012 | 3666 ft | 207 kts | 226° |
| 2026-04-26 08:57 | 34.93913 | -90.02585 | 3854 ft | 226 kts | 258° |
| 2026-04-26 08:58 | 34.93753 | -90.04564 | 4098 ft | 245 kts | 271° |
| 2026-04-26 08:58 | 34.93844 | -90.06599 | 4810 ft | 245 kts | 275° |
| 2026-04-26 08:58 | 34.93986 | -90.08691 | 5483 ft | 248 kts | 276° |
| 2026-04-26 08:58 | 34.94185 | -90.10843 | 5867 ft | 267 kts | 278° |
| 2026-04-26 08:59 | 34.94495 | -90.13087 | 6567 ft | 273 kts | 281° |
| 2026-04-26 08:59 | 34.94875 | -90.15329 | 7346 ft | 276 kts | 282° |
| 2026-04-26 08:59 | 34.95270 | -90.17607 | 8194 ft | 278 kts | 281° |
| 2026-04-26 08:59 | 34.95649 | -90.19907 | 9073 ft | 278 kts | 281° |
| 2026-04-26 09:00 | 34.95998 | -90.22220 | 9899 ft | 279 kts | 278° |
| 2026-04-26 09:00 | 34.96282 | -90.24558 | 10420 ft | 293 kts | 278° |
| 2026-04-26 09:00 | 34.96580 | -90.27148 | 10581 ft | 320 kts | 278° |
| 2026-04-26 09:00 | 34.96896 | -90.29919 | 10694 ft | 348 kts | 278° |
| 2026-04-26 09:01 | 34.97248 | -90.32975 | 10818 ft | 374 kts | 278° |
| 2026-04-26 09:01 | 34.97624 | -90.36172 | 11097 ft | 392 kts | 279° |
| 2026-04-26 09:01 | 34.98030 | -90.39490 | 11740 ft | 400 kts | 279° |
| 2026-04-26 09:01 | 34.98448 | -90.42858 | 12421 ft | 407 kts | 279° |
| 2026-04-26 09:02 | 34.98865 | -90.46280 | 13195 ft | 411 kts | 279° |
| 2026-04-26 09:02 | 34.99290 | -90.49824 | 13931 ft | 416 kts | 280° |
| 2026-04-26 09:02 | 34.99720 | -90.53339 | 14699 ft | 419 kts | 280° |
| 2026-04-26 09:02 | 35.00150 | -90.56818 | 15457 ft | 422 kts | 280° |
| 2026-04-26 09:03 | 35.00585 | -90.60361 | 16220 ft | 425 kts | 280° |
| 2026-04-26 09:03 | 35.01026 | -90.63923 | 16966 ft | 428 kts | 280° |
| 2026-04-26 09:03 | 35.01470 | -90.67529 | 17651 ft | 433 kts | 279° |
| 2026-04-26 09:03 | 35.01920 | -90.71172 | 18477 ft | 434 kts | 280° |
| 2026-04-26 09:04 | 35.02319 | -90.74817 | 19204 ft | 438 kts | 277° |
| 2026-04-26 09:04 | 35.02472 | -90.78507 | 19903 ft | 442 kts | 272° |
| 2026-04-26 09:04 | 35.02493 | -90.82259 | 20599 ft | 445 kts | 272° |
| 2026-04-26 09:04 | 35.02478 | -90.86037 | 21356 ft | 447 kts | 271° |
| 2026-04-26 09:05 | 35.02551 | -90.89819 | 22038 ft | 449 kts | 274° |
| 2026-04-26 09:05 | 35.02711 | -90.93611 | 22759 ft | 450 kts | 274° |
| 2026-04-26 09:05 | 35.02880 | -90.97434 | 23374 ft | 454 kts | 274° |
| 2026-04-26 09:05 | 35.03025 | -91.01226 | 24062 ft | 457 kts | 274° |
| 2026-04-26 09:06 | 35.03157 | -91.05120 | 24758 ft | 458 kts | 274° |
| 2026-04-26 09:06 | 35.03282 | -91.09010 | 25291 ft | 463 kts | 274° |
| 2026-04-26 09:06 | 35.03406 | -91.12928 | 25990 ft | 464 kts | 274° |
| 2026-04-26 09:06 | 35.03530 | -91.16798 | 26804 ft | 462 kts | 274° |
| 2026-04-26 09:07 | 35.03656 | -91.20700 | 27739 ft | 457 kts | 274° |
| 2026-04-26 09:07 | 35.03789 | -91.24554 | 28689 ft | 452 kts | 274° |
| 2026-04-26 09:07 | 35.03919 | -91.28326 | 29611 ft | 446 kts | 274° |
| 2026-04-26 09:07 | 35.04050 | -91.32076 | 30493 ft | 440 kts | 274° |
| 2026-04-26 09:08 | 35.04184 | -91.35715 | 31374 ft | 433 kts | 273° |
| 2026-04-26 09:08 | 35.04312 | -91.39362 | 32214 ft | 426 kts | 273° |
| 2026-04-26 09:08 | 35.04438 | -91.42887 | 32878 ft | 421 kts | 273° |
| 2026-04-26 09:08 | 35.04567 | -91.46442 | 33559 ft | 415 kts | 272° |
| 2026-04-26 09:09 | 35.04692 | -91.49927 | 34254 ft | 409 kts | 272° |
| 2026-04-26 09:09 | 35.04818 | -91.53371 | 34752 ft | 406 kts | 272° |
| 2026-04-26 09:09 | 35.04938 | -91.56769 | 35141 ft | 406 kts | 272° |
| 2026-04-26 09:09 | 35.05061 | -91.60190 | 35588 ft | 403 kts | 273° |
| 2026-04-26 09:10 | 35.05197 | -91.63591 | 35973 ft | 401 kts | 273° |
| 2026-04-26 09:10 | 35.05323 | -91.66949 | 36316 ft | 400 kts | 272° |
| 2026-04-26 09:10 | 35.05453 | -91.70340 | 36595 ft | 400 kts | 272° |
| 2026-04-26 09:10 | 35.05579 | -91.73689 | 36927 ft | 398 kts | 272° |
| 2026-04-26 09:11 | 35.05706 | -91.77078 | 37105 ft | 399 kts | 272° |
| 2026-04-26 09:11 | 35.05841 | -91.80445 | 37332 ft | 399 kts | 272° |
| 2026-04-26 09:11 | 35.05975 | -91.83831 | 37602 ft | 398 kts | 272° |
| 2026-04-26 09:11 | 35.06111 | -91.87180 | 37750 ft | 398 kts | 272° |
| 2026-04-26 09:12 | 35.06216 | -91.90542 | 37902 ft | 397 kts | 272° |
| 2026-04-26 09:12 | 35.06363 | -91.97197 | 37898 ft | 394 kts | 271° |
| 2026-04-26 09:13 | 35.06508 | -92.03860 | 37892 ft | 395 kts | 271° |
| 2026-04-26 09:13 | 35.06670 | -92.10568 | 37873 ft | 396 kts | 271° |
| 2026-04-26 09:14 | 35.06836 | -92.17274 | 37863 ft | 397 kts | 271° |
| 2026-04-26 09:14 | 35.07011 | -92.23984 | 37861 ft | 398 kts | 271° |
| 2026-04-26 09:15 | 35.07182 | -92.30730 | 37863 ft | 398 kts | 272° |
| 2026-04-26 09:15 | 35.07368 | -92.37444 | 37861 ft | 399 kts | 271° |
| 2026-04-26 09:16 | 35.07547 | -92.44183 | 37859 ft | 399 kts | 272° |
| 2026-04-26 09:16 | 35.07735 | -92.50951 | 37870 ft | 399 kts | 272° |
| 2026-04-26 09:17 | 35.07929 | -92.57684 | 37865 ft | 400 kts | 272° |
| 2026-04-26 09:17 | 35.08123 | -92.64461 | 37862 ft | 400 kts | 272° |
| 2026-04-26 09:18 | 35.08322 | -92.71234 | 37881 ft | 401 kts | 271° |
| 2026-04-26 09:18 | 35.08523 | -92.77920 | 37887 ft | 402 kts | 271° |
| 2026-04-26 09:19 | 35.08736 | -92.84760 | 37880 ft | 404 kts | 271° |
| 2026-04-26 09:19 | 35.08933 | -92.91615 | 37875 ft | 406 kts | 271° |
| 2026-04-26 09:20 | 35.09027 | -92.98502 | 37868 ft | 407 kts | 271° |
| 2026-04-26 09:20 | 35.09098 | -93.03631 | 37875 ft | 408 kts | 271° |
| 2026-04-26 09:21 | 35.09178 | -93.09152 | 37865 ft | 408 kts | 271° |
| 2026-04-26 09:21 | 35.09291 | -93.16061 | 37862 ft | 407 kts | 271° |
| 2026-04-26 09:22 | 35.09409 | -93.22960 | 37865 ft | 408 kts | 271° |
| 2026-04-26 09:22 | 35.09528 | -93.29844 | 37859 ft | 408 kts | 271° |
| 2026-04-26 09:23 | 35.09653 | -93.36764 | 37855 ft | 409 kts | 271° |
| 2026-04-26 09:23 | 35.09784 | -93.43681 | 37855 ft | 410 kts | 271° |
| 2026-04-26 09:24 | 35.09917 | -93.50647 | 37848 ft | 410 kts | 271° |
| 2026-04-26 09:24 | 35.10057 | -93.57588 | 37853 ft | 410 kts | 271° |
| 2026-04-26 09:25 | 35.10197 | -93.64537 | 37849 ft | 410 kts | 272° |
| 2026-04-26 09:25 | 35.10344 | -93.71466 | 37858 ft | 412 kts | 271° |
| 2026-04-26 09:26 | 35.10497 | -93.78429 | 37854 ft | 412 kts | 271° |
| 2026-04-26 09:26 | 35.10650 | -93.85420 | 37852 ft | 412 kts | 272° |
| 2026-04-26 09:27 | 35.10804 | -93.92396 | 37857 ft | 412 kts | 271° |
| 2026-04-26 09:27 | 35.10850 | -93.99363 | 37842 ft | 411 kts | 271° |
| 2026-04-26 09:28 | 35.10888 | -94.06313 | 37830 ft | 412 kts | 271° |
| 2026-04-26 09:28 | 35.10933 | -94.12741 | 37825 ft | 412 kts | 271° |
| 2026-04-26 09:29 | 35.10986 | -94.19561 | 37833 ft | 413 kts | 271° |
| 2026-04-26 09:29 | 35.11048 | -94.26568 | 37827 ft | 413 kts | 271° |
| 2026-04-26 09:30 | 35.11111 | -94.33597 | 37826 ft | 414 kts | 271° |
| 2026-04-26 09:30 | 35.11179 | -94.40586 | 37837 ft | 414 kts | 271° |
| 2026-04-26 09:31 | 35.11256 | -94.47622 | 37828 ft | 414 kts | 271° |
| 2026-04-26 09:31 | 35.11331 | -94.54612 | 37820 ft | 414 kts | 271° |
| 2026-04-26 09:32 | 35.11415 | -94.61694 | 37828 ft | 414 kts | 271° |
| 2026-04-26 09:32 | 35.11499 | -94.68571 | 37843 ft | 415 kts | 271° |
| 2026-04-26 09:33 | 35.11590 | -94.75543 | 37831 ft | 414 kts | 271° |
| 2026-04-26 09:33 | 35.11684 | -94.82633 | 37823 ft | 414 kts | 271° |
| 2026-04-26 09:34 | 35.11787 | -94.89629 | 37796 ft | 414 kts | 271° |
| 2026-04-26 09:34 | 35.11849 | -94.96661 | 37811 ft | 415 kts | 270° |
| 2026-04-26 09:35 | 35.11847 | -95.03697 | 37806 ft | 415 kts | 271° |
| 2026-04-26 09:35 | 35.11865 | -95.10752 | 37802 ft | 414 kts | 271° |
| 2026-04-26 09:36 | 35.11890 | -95.17792 | 37807 ft | 415 kts | 271° |
| 2026-04-26 09:36 | 35.11920 | -95.24813 | 37816 ft | 414 kts | 271° |
| 2026-04-26 09:37 | 35.11950 | -95.31844 | 37824 ft | 413 kts | 271° |
| 2026-04-26 09:37 | 35.11990 | -95.38859 | 37809 ft | 412 kts | 271° |
| 2026-04-26 09:38 | 35.12033 | -95.45907 | 37828 ft | 413 kts | 271° |
| 2026-04-26 09:38 | 35.12257 | -95.52906 | 37838 ft | 413 kts | 274° |
| 2026-04-26 09:39 | 35.12560 | -95.59911 | 37826 ft | 413 kts | 273° |
| 2026-04-26 09:39 | 35.12802 | -95.66901 | 37840 ft | 412 kts | 272° |
| 2026-04-26 09:40 | 35.13028 | -95.73923 | 37832 ft | 412 kts | 273° |
| 2026-04-26 09:40 | 35.13261 | -95.80915 | 37830 ft | 411 kts | 273° |
| 2026-04-26 09:41 | 35.13501 | -95.87884 | 37830 ft | 411 kts | 273° |
| 2026-04-26 09:41 | 35.13747 | -95.94829 | 37813 ft | 411 kts | 273° |
| 2026-04-26 09:42 | 35.13998 | -96.01815 | 37820 ft | 411 kts | 273° |
| 2026-04-26 09:42 | 35.14247 | -96.08710 | 37820 ft | 410 kts | 274° |
| 2026-04-26 09:43 | 35.14510 | -96.15706 | 37811 ft | 410 kts | 274° |
| 2026-04-26 09:43 | 35.14775 | -96.22650 | 37803 ft | 409 kts | 273° |
| 2026-04-26 09:44 | 35.15040 | -96.29575 | 37802 ft | 408 kts | 274° |
| 2026-04-26 09:44 | 35.15314 | -96.36498 | 37793 ft | 409 kts | 274° |
| 2026-04-26 09:45 | 35.15589 | -96.43493 | 37784 ft | 409 kts | 273° |
| 2026-04-26 09:45 | 35.15866 | -96.50453 | 37787 ft | 408 kts | 273° |
| 2026-04-26 09:46 | 35.16035 | -96.57366 | 37787 ft | 408 kts | 272° |
| 2026-04-26 09:46 | 35.16188 | -96.64285 | 37795 ft | 407 kts | 273° |
| 2026-04-26 09:47 | 35.16359 | -96.71181 | 37813 ft | 408 kts | 272° |
| 2026-04-26 09:47 | 35.16533 | -96.77933 | 37807 ft | 408 kts | 272° |
| 2026-04-26 09:48 | 35.16708 | -96.84566 | 37807 ft | 408 kts | 272° |
| 2026-04-26 09:48 | 35.16897 | -96.91458 | 37806 ft | 407 kts | 272° |
| 2026-04-26 09:49 | 35.17073 | -96.98052 | 37812 ft | 406 kts | 273° |
| 2026-04-26 09:49 | 35.17263 | -97.04778 | 37804 ft | 406 kts | 272° |
| 2026-04-26 09:50 | 35.17453 | -97.11509 | 37792 ft | 406 kts | 272° |
| 2026-04-26 09:50 | 35.17656 | -97.18368 | 37795 ft | 406 kts | 272° |
| 2026-04-26 09:51 | 35.17855 | -97.25119 | 37793 ft | 406 kts | 272° |
| 2026-04-26 09:51 | 35.18066 | -97.31971 | 37802 ft | 405 kts | 273° |
| 2026-04-26 09:52 | 35.18269 | -97.38626 | 37797 ft | 404 kts | 272° |
| 2026-04-26 09:52 | 35.18594 | -97.48836 | 37792 ft | 403 kts | 273° |
| 2026-04-26 09:53 | 35.18757 | -97.55538 | 37789 ft | 403 kts | 272° |
| 2026-04-26 09:53 | 35.18850 | -97.62329 | 37805 ft | 403 kts | 271° |
| 2026-04-26 09:54 | 35.18952 | -97.69198 | 37811 ft | 403 kts | 271° |
| 2026-04-26 09:54 | 35.19067 | -97.75993 | 37807 ft | 402 kts | 271° |
| 2026-04-26 09:55 | 35.19187 | -97.82835 | 37796 ft | 401 kts | 272° |
| 2026-04-26 09:55 | 35.19311 | -97.89592 | 37796 ft | 401 kts | 272° |
| 2026-04-26 09:56 | 35.19438 | -97.96418 | 37776 ft | 401 kts | 271° |
| 2026-04-26 09:56 | 35.19566 | -98.03191 | 37782 ft | 401 kts | 271° |
| 2026-04-26 09:57 | 35.19706 | -98.10016 | 37784 ft | 400 kts | 272° |
| 2026-04-26 09:57 | 35.19843 | -98.16778 | 37779 ft | 400 kts | 272° |
| 2026-04-26 09:58 | 35.19989 | -98.23576 | 37785 ft | 401 kts | 271° |
| 2026-04-26 09:58 | 35.20133 | -98.30257 | 37766 ft | 401 kts | 272° |
| 2026-04-26 09:59 | 35.20258 | -98.35918 | 37757 ft | 401 kts | 272° |
| 2026-04-26 09:59 | 35.20434 | -98.43757 | 37752 ft | 401 kts | 272° |
| 2026-04-26 10:00 | 35.20598 | -98.50553 | 37744 ft | 401 kts | 272° |
| 2026-04-26 10:00 | 35.20706 | -98.57359 | 37740 ft | 402 kts | 271° |
| 2026-04-26 10:01 | 35.20747 | -98.64195 | 37749 ft | 402 kts | 271° |
| 2026-04-26 10:01 | 35.20793 | -98.71042 | 37763 ft | 402 kts | 270° |
| 2026-04-26 10:02 | 35.20847 | -98.77821 | 37754 ft | 402 kts | 271° |
| 2026-04-26 10:02 | 35.20909 | -98.84659 | 37755 ft | 402 kts | 271° |
| 2026-04-26 10:03 | 35.20974 | -98.91231 | 37749 ft | 402 kts | 271° |
| 2026-04-26 10:03 | 35.21043 | -98.98012 | 37745 ft | 401 kts | 271° |
| 2026-04-26 10:04 | 35.21112 | -99.04478 | 37752 ft | 401 kts | 271° |
| 2026-04-26 10:04 | 35.21178 | -99.10043 | 37758 ft | 401 kts | 271° |
| 2026-04-26 10:05 | 35.21258 | -99.16858 | 37760 ft | 401 kts | 271° |
| 2026-04-26 10:05 | 35.21338 | -99.23174 | 37767 ft | 401 kts | 271° |
| 2026-04-26 10:06 | 35.21426 | -99.29902 | 37765 ft | 400 kts | 271° |
| 2026-04-26 10:06 | 35.21521 | -99.36678 | 37768 ft | 401 kts | 271° |
| 2026-04-26 10:07 | 35.21612 | -99.43291 | 37768 ft | 401 kts | 271° |
| 2026-04-26 10:07 | 35.21712 | -99.49932 | 37767 ft | 401 kts | 271° |
| 2026-04-26 10:08 | 35.21798 | -99.56722 | 37766 ft | 401 kts | 270° |
| 2026-04-26 10:08 | 35.21789 | -99.63551 | 37766 ft | 401 kts | 270° |
| 2026-04-26 10:09 | 35.21777 | -99.70350 | 37784 ft | 401 kts | 270° |
| 2026-04-26 10:09 | 35.21773 | -99.77183 | 37782 ft | 401 kts | 270° |
| 2026-04-26 10:10 | 35.21775 | -99.83971 | 37773 ft | 401 kts | 270° |
| 2026-04-26 10:10 | 35.21784 | -99.90680 | 37775 ft | 401 kts | 270° |
| 2026-04-26 10:11 | 35.21795 | -99.97319 | 37784 ft | 400 kts | 270° |
| 2026-04-26 10:11 | 35.21808 | -100.03938 | 37779 ft | 400 kts | 270° |
| 2026-04-26 10:12 | 35.21828 | -100.10648 | 37782 ft | 401 kts | 270° |
| 2026-04-26 10:12 | 35.21850 | -100.17457 | 37779 ft | 401 kts | 270° |
| 2026-04-26 10:13 | 35.21880 | -100.24148 | 37772 ft | 400 kts | 270° |
| 2026-04-26 10:13 | 35.21910 | -100.30931 | 37775 ft | 400 kts | 270° |
| 2026-04-26 10:14 | 35.21943 | -100.37601 | 37780 ft | 401 kts | 270° |
| 2026-04-26 10:14 | 35.21986 | -100.44208 | 37778 ft | 400 kts | 270° |
| 2026-04-26 10:15 | 35.22028 | -100.50990 | 37793 ft | 400 kts | 270° |
| 2026-04-26 10:15 | 35.22063 | -100.57783 | 37789 ft | 399 kts | 270° |
| 2026-04-26 10:16 | 35.22005 | -100.64577 | 37801 ft | 399 kts | 269° |
| 2026-04-26 10:16 | 35.21933 | -100.71328 | 37808 ft | 400 kts | 269° |
| 2026-04-26 10:17 | 35.21867 | -100.78105 | 37815 ft | 399 kts | 269° |
| 2026-04-26 10:17 | 35.21818 | -100.84865 | 37811 ft | 398 kts | 269° |
| 2026-04-26 10:18 | 35.21770 | -100.91464 | 37813 ft | 398 kts | 269° |
| 2026-04-26 10:18 | 35.21727 | -100.98239 | 37817 ft | 398 kts | 269° |
| 2026-04-26 10:19 | 35.21684 | -101.05009 | 37815 ft | 398 kts | 269° |
| 2026-04-26 10:19 | 35.21641 | -101.11769 | 37816 ft | 398 kts | 269° |
| 2026-04-26 10:20 | 35.21618 | -101.17423 | 37822 ft | 397 kts | 269° |
| 2026-04-26 10:20 | 35.21585 | -101.23769 | 37816 ft | 397 kts | 269° |
| 2026-04-26 10:21 | 35.21565 | -101.30517 | 37813 ft | 397 kts | 269° |
| 2026-04-26 10:21 | 35.21539 | -101.36871 | 37819 ft | 396 kts | 269° |
| 2026-04-26 10:22 | 35.21521 | -101.43624 | 37832 ft | 396 kts | 269° |
| 2026-04-26 10:22 | 35.21509 | -101.50337 | 37837 ft | 397 kts | 269° |
| 2026-04-26 10:23 | 35.21495 | -101.57069 | 37827 ft | 398 kts | 269° |
| 2026-04-26 10:23 | 35.21417 | -101.63795 | 37831 ft | 397 kts | 268° |
| 2026-04-26 10:24 | 35.21286 | -101.70536 | 37864 ft | 397 kts | 268° |
| 2026-04-26 10:24 | 35.21187 | -101.76128 | 37861 ft | 396 kts | 268° |
| 2026-04-26 10:25 | 35.21063 | -101.83394 | 37870 ft | 396 kts | 268° |
| 2026-04-26 10:25 | 35.20959 | -101.90099 | 37858 ft | 396 kts | 268° |
| 2026-04-26 10:26 | 35.20870 | -101.95667 | 37851 ft | 395 kts | 268° |
| 2026-04-26 10:26 | 35.20761 | -102.02956 | 37861 ft | 394 kts | 268° |
| 2026-04-26 10:27 | 35.20667 | -102.09304 | 37876 ft | 394 kts | 268° |
| 2026-04-26 10:27 | 35.20575 | -102.16015 | 37871 ft | 395 kts | 268° |
| 2026-04-26 10:28 | 35.20491 | -102.22729 | 37874 ft | 396 kts | 268° |
| 2026-04-26 10:28 | 35.20404 | -102.29421 | 37873 ft | 395 kts | 268° |
| 2026-04-26 10:29 | 35.20327 | -102.36104 | 37879 ft | 394 kts | 268° |
| 2026-04-26 10:29 | 35.20247 | -102.42779 | 37882 ft | 394 kts | 268° |
| 2026-04-26 10:30 | 35.20184 | -102.49455 | 37879 ft | 393 kts | 268° |
| 2026-04-26 10:30 | 35.20104 | -102.56123 | 37889 ft | 394 kts | 268° |
| 2026-04-26 10:31 | 35.20021 | -102.62772 | 37894 ft | 393 kts | 267° |
| 2026-04-26 10:31 | 35.19840 | -102.69466 | 37903 ft | 393 kts | 266° |
| 2026-04-26 10:32 | 35.19668 | -102.76099 | 37909 ft | 393 kts | 266° |
| 2026-04-26 10:32 | 35.19502 | -102.82774 | 37781 ft | 393 kts | 266° |
| 2026-04-26 10:33 | 35.19341 | -102.89401 | 37903 ft | 393 kts | 266° |
| 2026-04-26 10:33 | 35.19183 | -102.96078 | 37890 ft | 393 kts | 266° |
| 2026-04-26 10:34 | 35.19035 | -103.02722 | 37910 ft | 393 kts | 266° |
| 2026-04-26 10:34 | 35.18886 | -103.09401 | 37911 ft | 393 kts | 266° |
| 2026-04-26 10:35 | 35.18740 | -103.16061 | 37926 ft | 393 kts | 266° |
| 2026-04-26 10:35 | 35.18644 | -103.20635 | 37939 ft | 393 kts | 266° |
| 2026-04-26 10:36 | 35.18504 | -103.27374 | 37963 ft | 393 kts | 266° |
| 2026-04-26 10:36 | 35.18370 | -103.34026 | 37963 ft | 393 kts | 266° |
| 2026-04-26 10:37 | 35.18240 | -103.40685 | 37947 ft | 393 kts | 266° |
| 2026-04-26 10:37 | 35.18113 | -103.47322 | 37958 ft | 393 kts | 267° |
| 2026-04-26 10:38 | 35.17989 | -103.54015 | 37932 ft | 393 kts | 267° |
| 2026-04-26 10:38 | 35.18071 | -103.60665 | 37912 ft | 394 kts | 269° |
| 2026-04-26 10:39 | 35.18092 | -103.67164 | 38020 ft | 394 kts | 266° |
| 2026-04-26 10:39 | 35.17944 | -103.73853 | 37957 ft | 393 kts | 266° |
| 2026-04-26 10:40 | 35.17766 | -103.80475 | 37951 ft | 393 kts | 266° |
| 2026-04-26 10:40 | 35.17592 | -103.87000 | 37953 ft | 393 kts | 266° |
| 2026-04-26 10:41 | 35.17420 | -103.93660 | 37957 ft | 394 kts | 265° |
| 2026-04-26 10:41 | 35.17253 | -104.00346 | 37800 ft | 394 kts | 266° |
| 2026-04-26 10:42 | 35.17175 | -104.03654 | 38047 ft | 394 kts | 265° |
| 2026-04-26 10:42 | 35.17118 | -104.05870 | 38043 ft | 395 kts | 266° |
| 2026-04-26 10:42 | 35.16932 | -104.13652 | 37977 ft | 393 kts | 266° |
| 2026-04-26 10:43 | 35.16781 | -104.20335 | 37973 ft | 393 kts | 266° |
| 2026-04-26 10:43 | 35.16634 | -104.27007 | 37976 ft | 394 kts | 266° |
| 2026-04-26 10:44 | 35.16493 | -104.33641 | 37978 ft | 395 kts | 266° |
| 2026-04-26 10:44 | 35.16350 | -104.40371 | 37978 ft | 395 kts | 266° |
| 2026-04-26 10:45 | 35.16215 | -104.47063 | 37987 ft | 396 kts | 266° |
| 2026-04-26 10:45 | 35.16081 | -104.53762 | 37993 ft | 396 kts | 266° |
| 2026-04-26 10:46 | 35.15956 | -104.60481 | 37988 ft | 395 kts | 266° |
| 2026-04-26 10:46 | 35.15828 | -104.67156 | 38002 ft | 395 kts | 266° |
| 2026-04-26 10:47 | 35.15628 | -104.73875 | 38007 ft | 395 kts | 265° |
| 2026-04-26 10:47 | 35.15381 | -104.80546 | 38012 ft | 394 kts | 265° |
| 2026-04-26 10:48 | 35.15145 | -104.87200 | 38010 ft | 394 kts | 265° |
| 2026-04-26 10:48 | 35.14923 | -104.93876 | 38002 ft | 394 kts | 265° |
| 2026-04-26 10:49 | 35.14710 | -105.00540 | 37998 ft | 394 kts | 265° |
| 2026-04-26 10:49 | 35.14494 | -105.07189 | 37986 ft | 393 kts | 265° |
| 2026-04-26 10:50 | 35.14320 | -105.12730 | 37982 ft | 393 kts | 265° |
| 2026-04-26 10:50 | 35.14076 | -105.20460 | 37899 ft | 392 kts | 265° |
| 2026-04-26 10:51 | 35.13779 | -105.30456 | 37969 ft | 393 kts | 265° |
| 2026-04-26 10:52 | 35.13572 | -105.37093 | 37974 ft | 392 kts | 265° |
| 2026-04-26 10:52 | 35.13383 | -105.43704 | 37985 ft | 392 kts | 265° |
| 2026-04-26 10:53 | 35.13195 | -105.50342 | 37989 ft | 393 kts | 265° |
| 2026-04-26 10:53 | 35.13007 | -105.56983 | 37990 ft | 392 kts | 265° |
| 2026-04-26 10:54 | 35.12738 | -105.66929 | 38009 ft | 392 kts | 265° |
| 2026-04-26 10:54 | 35.12513 | -105.73545 | 38000 ft | 391 kts | 264° |
| 2026-04-26 10:55 | 35.12263 | -105.79048 | 37998 ft | 391 kts | 264° |
| 2026-04-26 10:55 | 35.11967 | -105.85651 | 38006 ft | 390 kts | 264° |
| 2026-04-26 10:56 | 35.11651 | -105.93364 | 37999 ft | 390 kts | 264° |
| 2026-04-26 10:56 | 35.11377 | -105.99956 | 38001 ft | 391 kts | 264° |
| 2026-04-26 10:57 | 35.11108 | -106.06593 | 37995 ft | 391 kts | 264° |
| 2026-04-26 10:57 | 35.10841 | -106.13218 | 38001 ft | 392 kts | 264° |
| 2026-04-26 10:58 | 35.10576 | -106.19879 | 38002 ft | 391 kts | 264° |
| 2026-04-26 10:58 | 35.10318 | -106.26451 | 38001 ft | 390 kts | 264° |
| 2026-04-26 10:59 | 35.10067 | -106.33099 | 38001 ft | 390 kts | 264° |
| 2026-04-26 10:59 | 35.09808 | -106.39714 | 38000 ft | 390 kts | 264° |
| 2026-04-26 11:00 | 35.09561 | -106.46339 | 38004 ft | 390 kts | 265° |
| 2026-04-26 11:00 | 35.09322 | -106.52958 | 38001 ft | 390 kts | 264° |
| 2026-04-26 11:01 | 35.09079 | -106.59558 | 37968 ft | 390 kts | 265° |
| 2026-04-26 11:01 | 35.08846 | -106.66167 | 37957 ft | 390 kts | 264° |
| 2026-04-26 11:02 | 35.08600 | -106.72793 | 37947 ft | 389 kts | 263° |
| 2026-04-26 11:02 | 35.08255 | -106.79398 | 37936 ft | 390 kts | 263° |
| 2026-04-26 11:03 | 35.07910 | -106.85962 | 37932 ft | 389 kts | 263° |
| 2026-04-26 11:03 | 35.07567 | -106.92590 | 37908 ft | 388 kts | 263° |
| 2026-04-26 11:04 | 35.07243 | -106.99164 | 37941 ft | 388 kts | 263° |
| 2026-04-26 11:04 | 35.06919 | -107.05742 | 37953 ft | 388 kts | 263° |
| 2026-04-26 11:05 | 35.06599 | -107.12295 | 37964 ft | 388 kts | 263° |
| 2026-04-26 11:05 | 35.06280 | -107.18861 | 37966 ft | 389 kts | 264° |
| 2026-04-26 11:06 | 35.06017 | -107.24387 | 37961 ft | 389 kts | 264° |
| 2026-04-26 11:06 | 35.05653 | -107.32082 | 37960 ft | 389 kts | 264° |
| 2026-04-26 11:07 | 35.05348 | -107.38671 | 37971 ft | 389 kts | 263° |
| 2026-04-26 11:07 | 35.05042 | -107.45239 | 37981 ft | 390 kts | 264° |
| 2026-04-26 11:08 | 35.04749 | -107.51820 | 37977 ft | 390 kts | 263° |
| 2026-04-26 11:08 | 35.04445 | -107.58471 | 37982 ft | 391 kts | 264° |
| 2026-04-26 11:09 | 35.04156 | -107.65070 | 37978 ft | 390 kts | 263° |
| 2026-04-26 11:09 | 35.03865 | -107.71690 | 37997 ft | 391 kts | 264° |
| 2026-04-26 11:10 | 35.03505 | -107.78302 | 37988 ft | 390 kts | 262° |
| 2026-04-26 11:10 | 35.03101 | -107.84866 | 37974 ft | 390 kts | 263° |
| 2026-04-26 11:11 | 35.02713 | -107.91446 | 37969 ft | 391 kts | 262° |
| 2026-04-26 11:11 | 35.02323 | -107.98068 | 37973 ft | 392 kts | 262° |
| 2026-04-26 11:12 | 35.01935 | -108.04692 | 37983 ft | 391 kts | 263° |
| 2026-04-26 11:12 | 35.01553 | -108.11304 | 37985 ft | 391 kts | 262° |
| 2026-04-26 11:13 | 35.01172 | -108.17915 | 38000 ft | 390 kts | 263° |
| 2026-04-26 11:13 | 35.00805 | -108.24510 | 37993 ft | 391 kts | 263° |
| 2026-04-26 11:14 | 35.00429 | -108.31130 | 37993 ft | 391 kts | 263° |
| 2026-04-26 11:14 | 35.00132 | -108.36660 | 37978 ft | 391 kts | 263° |
| 2026-04-26 11:15 | 34.99710 | -108.44337 | 37974 ft | 391 kts | 263° |
| 2026-04-26 11:15 | 34.99351 | -108.50954 | 37972 ft | 391 kts | 263° |
| 2026-04-26 11:16 | 34.98995 | -108.57547 | 37970 ft | 391 kts | 263° |
| 2026-04-26 11:16 | 34.98655 | -108.64114 | 37966 ft | 391 kts | 263° |
| 2026-04-26 11:17 | 34.98387 | -108.69122 | 37971 ft | 391 kts | 263° |
| 2026-04-26 11:17 | 34.98037 | -108.75707 | 37976 ft | 390 kts | 262° |
| 2026-04-26 11:18 | 34.97659 | -108.81203 | 37967 ft | 389 kts | 262° |
| 2026-04-26 11:18 | 34.97161 | -108.88442 | 37939 ft | 389 kts | 262° |
| 2026-04-26 11:19 | 34.96717 | -108.95019 | 37915 ft | 389 kts | 262° |
| 2026-04-26 11:19 | 34.96278 | -109.01553 | 37906 ft | 389 kts | 262° |
| 2026-04-26 11:20 | 34.95915 | -109.06993 | 37921 ft | 389 kts | 262° |
| 2026-04-26 11:20 | 34.95409 | -109.14625 | 37940 ft | 388 kts | 262° |
| 2026-04-26 11:21 | 34.94982 | -109.21172 | 37939 ft | 388 kts | 262° |
| 2026-04-26 11:21 | 34.94558 | -109.27704 | 37942 ft | 389 kts | 262° |
| 2026-04-26 11:22 | 34.94141 | -109.34258 | 37941 ft | 388 kts | 263° |
| 2026-04-26 11:22 | 34.93732 | -109.40787 | 37940 ft | 387 kts | 262° |
| 2026-04-26 11:23 | 34.93315 | -109.47308 | 37940 ft | 387 kts | 263° |
| 2026-04-26 11:23 | 34.92916 | -109.53812 | 37942 ft | 387 kts | 263° |
| 2026-04-26 11:24 | 34.92506 | -109.60317 | 37934 ft | 386 kts | 263° |
| 2026-04-26 11:24 | 34.92117 | -109.66851 | 37940 ft | 386 kts | 262° |
| 2026-04-26 11:25 | 34.91713 | -109.73340 | 37948 ft | 386 kts | 262° |
| 2026-04-26 11:25 | 34.91268 | -109.79828 | 37948 ft | 385 kts | 261° |
| 2026-04-26 11:26 | 34.90767 | -109.86272 | 37934 ft | 385 kts | 261° |
| 2026-04-26 11:26 | 34.90267 | -109.92731 | 37939 ft | 385 kts | 261° |
| 2026-04-26 11:27 | 34.89774 | -109.99246 | 37929 ft | 385 kts | 262° |
| 2026-04-26 11:27 | 34.89293 | -110.05712 | 37930 ft | 385 kts | 261° |
| 2026-04-26 11:28 | 34.88807 | -110.12174 | 37933 ft | 385 kts | 262° |
| 2026-04-26 11:28 | 34.88330 | -110.18659 | 37924 ft | 385 kts | 262° |
| 2026-04-26 11:29 | 34.87853 | -110.25120 | 37900 ft | 386 kts | 262° |
| 2026-04-26 11:29 | 34.87387 | -110.31624 | 37893 ft | 387 kts | 262° |
| 2026-04-26 11:30 | 34.86989 | -110.37048 | 37895 ft | 387 kts | 262° |
| 2026-04-26 11:30 | 34.86451 | -110.44646 | 37887 ft | 387 kts | 262° |
| 2026-04-26 11:31 | 34.85987 | -110.51165 | 37881 ft | 388 kts | 262° |
| 2026-04-26 11:31 | 34.85524 | -110.57671 | 37867 ft | 388 kts | 262° |
| 2026-04-26 11:32 | 34.85193 | -110.62492 | 37873 ft | 387 kts | 262° |
| 2026-04-26 11:32 | 34.84742 | -110.69002 | 37883 ft | 388 kts | 262° |
| 2026-04-26 11:33 | 34.84289 | -110.75523 | 37869 ft | 388 kts | 262° |
| 2026-04-26 11:33 | 34.83758 | -110.82039 | 37864 ft | 387 kts | 261° |
| 2026-04-26 11:34 | 34.83196 | -110.88525 | 37870 ft | 387 kts | 262° |
| 2026-04-26 11:34 | 34.82645 | -110.95050 | 37853 ft | 388 kts | 261° |
| 2026-04-26 11:35 | 34.82093 | -111.01578 | 37842 ft | 389 kts | 262° |
| 2026-04-26 11:35 | 34.81644 | -111.06993 | 37829 ft | 388 kts | 261° |
| 2026-04-26 11:36 | 34.81014 | -111.14616 | 37837 ft | 388 kts | 261° |
| 2026-04-26 11:36 | 34.80484 | -111.21131 | 37831 ft | 388 kts | 261° |
| 2026-04-26 11:37 | 34.79951 | -111.27638 | 37827 ft | 389 kts | 262° |
| 2026-04-26 11:37 | 34.79445 | -111.33912 | 37816 ft | 388 kts | 261° |
| 2026-04-26 11:38 | 34.78916 | -111.40466 | 37812 ft | 388 kts | 261° |
| 2026-04-26 11:38 | 34.78396 | -111.46989 | 37822 ft | 389 kts | 261° |
| 2026-04-26 11:39 | 34.77882 | -111.53503 | 37829 ft | 389 kts | 261° |
| 2026-04-26 11:39 | 34.77357 | -111.60039 | 37823 ft | 389 kts | 262° |
| 2026-04-26 11:40 | 34.76858 | -111.66558 | 37832 ft | 389 kts | 261° |
| 2026-04-26 11:40 | 34.76343 | -111.73088 | 37875 ft | 390 kts | 261° |
| 2026-04-26 11:42 | 34.74050 | -111.99129 | 37849 ft | 389 kts | 260° |
| 2026-04-26 11:43 | 34.73465 | -112.05617 | 37855 ft | 390 kts | 261° |
| 2026-04-26 11:43 | 34.72890 | -112.12196 | 37871 ft | 390 kts | 260° |
| 2026-04-26 11:44 | 34.72323 | -112.18697 | 37858 ft | 389 kts | 260° |
| 2026-04-26 11:44 | 34.71748 | -112.25221 | 37860 ft | 391 kts | 260° |
| 2026-04-26 11:45 | 34.71179 | -112.31791 | 37862 ft | 392 kts | 261° |
| 2026-04-26 11:45 | 34.70622 | -112.38345 | 37855 ft | 392 kts | 261° |
| 2026-04-26 11:46 | 34.70144 | -112.44940 | 37864 ft | 393 kts | 263° |
| 2026-04-26 11:46 | 34.69793 | -112.51502 | 37855 ft | 393 kts | 262° |
| 2026-04-26 11:47 | 34.69125 | -112.58106 | 37856 ft | 394 kts | 259° |
| 2026-04-26 11:47 | 34.68335 | -112.64659 | 37846 ft | 394 kts | 259° |
| 2026-04-26 11:48 | 34.67527 | -112.71225 | 37848 ft | 395 kts | 259° |
| 2026-04-26 11:48 | 34.66734 | -112.77812 | 37846 ft | 395 kts | 258° |
| 2026-04-26 11:49 | 34.65950 | -112.84373 | 37838 ft | 395 kts | 259° |
| 2026-04-26 11:49 | 34.65169 | -112.90990 | 37831 ft | 396 kts | 259° |
| 2026-04-26 11:50 | 34.64399 | -112.97563 | 37813 ft | 396 kts | 259° |
| 2026-04-26 11:50 | 34.63613 | -113.04215 | 37814 ft | 398 kts | 259° |
| 2026-04-26 11:51 | 34.62849 | -113.10830 | 37810 ft | 399 kts | 259° |
| 2026-04-26 11:51 | 34.62067 | -113.17497 | 37809 ft | 399 kts | 259° |
| 2026-04-26 11:52 | 34.61433 | -113.23035 | 37801 ft | 398 kts | 259° |
| 2026-04-26 11:52 | 34.60549 | -113.30737 | 37809 ft | 398 kts | 259° |
| 2026-04-26 11:53 | 34.59804 | -113.37174 | 37817 ft | 400 kts | 259° |
| 2026-04-26 11:54 | 34.58673 | -113.47153 | 37818 ft | 399 kts | 259° |
| 2026-04-26 11:54 | 34.57919 | -113.53834 | 37816 ft | 399 kts | 259° |
| 2026-04-26 11:55 | 34.57122 | -113.60458 | 37803 ft | 399 kts | 259° |
| 2026-04-26 11:55 | 34.56273 | -113.67092 | 37831 ft | 401 kts | 259° |
| 2026-04-26 11:56 | 34.55454 | -113.73789 | 37832 ft | 401 kts | 258° |
| 2026-04-26 11:56 | 34.54641 | -113.80312 | 37821 ft | 401 kts | 259° |
| 2026-04-26 11:57 | 34.53827 | -113.86981 | 37820 ft | 400 kts | 259° |
| 2026-04-26 11:57 | 34.53005 | -113.93640 | 37805 ft | 401 kts | 259° |
| 2026-04-26 11:58 | 34.52219 | -114.00159 | 37807 ft | 402 kts | 259° |
| 2026-04-26 11:58 | 34.51326 | -114.06722 | 37799 ft | 400 kts | 255° |
| 2026-04-26 11:59 | 34.49940 | -114.13238 | 37823 ft | 400 kts | 253° |
| 2026-04-26 11:59 | 34.48524 | -114.19710 | 37821 ft | 399 kts | 253° |
| 2026-04-26 12:00 | 34.47111 | -114.26198 | 37821 ft | 399 kts | 254° |
| 2026-04-26 12:00 | 34.45712 | -114.32655 | 37818 ft | 398 kts | 254° |
| 2026-04-26 12:01 | 34.44312 | -114.39163 | 37818 ft | 398 kts | 254° |
| 2026-04-26 12:01 | 34.42939 | -114.45547 | 37822 ft | 399 kts | 254° |
| 2026-04-26 12:02 | 34.41644 | -114.51594 | 37813 ft | 399 kts | 254° |
| 2026-04-26 12:02 | 34.40248 | -114.58081 | 37812 ft | 399 kts | 254° |
| 2026-04-26 12:03 | 34.38897 | -114.64429 | 37819 ft | 398 kts | 254° |
| 2026-04-26 12:03 | 34.37518 | -114.70900 | 37822 ft | 396 kts | 254° |
| 2026-04-26 12:04 | 34.36160 | -114.77309 | 37836 ft | 396 kts | 254° |
| 2026-04-26 12:04 | 34.34781 | -114.83770 | 37833 ft | 396 kts | 254° |
| 2026-04-26 12:05 | 34.33453 | -114.90101 | 37824 ft | 396 kts | 254° |
| 2026-04-26 12:05 | 34.32059 | -114.96499 | 37823 ft | 395 kts | 253° |
| 2026-04-26 12:06 | 34.30635 | -115.02902 | 37822 ft | 395 kts | 253° |
| 2026-04-26 12:06 | 34.29236 | -115.09298 | 37818 ft | 395 kts | 253° |
| 2026-04-26 12:07 | 34.27829 | -115.15697 | 37814 ft | 396 kts | 254° |
| 2026-04-26 12:07 | 34.26420 | -115.22150 | 37806 ft | 397 kts | 254° |
| 2026-04-26 12:08 | 34.25037 | -115.28567 | 37805 ft | 398 kts | 254° |
| 2026-04-26 12:08 | 34.23640 | -115.35011 | 37811 ft | 398 kts | 254° |
| 2026-04-26 12:09 | 34.22250 | -115.41487 | 37812 ft | 397 kts | 254° |
| 2026-04-26 12:09 | 34.20871 | -115.47907 | 37822 ft | 398 kts | 254° |
| 2026-04-26 12:10 | 34.19488 | -115.54369 | 37817 ft | 398 kts | 255° |
| 2026-04-26 12:10 | 34.18107 | -115.60847 | 37828 ft | 399 kts | 254° |
| 2026-04-26 12:11 | 34.16736 | -115.67296 | 37829 ft | 400 kts | 255° |
| 2026-04-26 12:11 | 34.15885 | -115.73910 | 37846 ft | 401 kts | 261° |
| 2026-04-26 12:12 | 34.15264 | -115.80616 | 37658 ft | 402 kts | 261° |
| 2026-04-26 12:12 | 34.14939 | -115.83914 | 37231 ft | 401 kts | 261° |
| 2026-04-26 12:12 | 34.14604 | -115.87264 | 36828 ft | 399 kts | 260° |
| 2026-04-26 12:12 | 34.14388 | -115.89471 | 36567 ft | 396 kts | 261° |
| 2026-04-26 12:13 | 34.13974 | -115.93802 | 36105 ft | 392 kts | 261° |
| 2026-04-26 12:13 | 34.13665 | -115.97079 | 35762 ft | 391 kts | 261° |
| 2026-04-26 12:13 | 34.13348 | -116.00291 | 35413 ft | 390 kts | 260° |
| 2026-04-26 12:13 | 34.13009 | -116.03572 | 35114 ft | 391 kts | 261° |
| 2026-04-26 12:14 | 34.12685 | -116.06817 | 34821 ft | 392 kts | 261° |
| 2026-04-26 12:14 | 34.12363 | -116.10062 | 34502 ft | 393 kts | 260° |
| 2026-04-26 12:14 | 34.12044 | -116.13303 | 34176 ft | 393 kts | 260° |
| 2026-04-26 12:14 | 34.11718 | -116.16607 | 33847 ft | 395 kts | 261° |
| 2026-04-26 12:15 | 34.11398 | -116.19869 | 33525 ft | 396 kts | 261° |
| 2026-04-26 12:15 | 34.11074 | -116.23162 | 33191 ft | 396 kts | 261° |
| 2026-04-26 12:15 | 34.10759 | -116.26431 | 32860 ft | 396 kts | 261° |
| 2026-04-26 12:15 | 34.10435 | -116.29765 | 32523 ft | 397 kts | 261° |
| 2026-04-26 12:16 | 34.10093 | -116.33045 | 32165 ft | 397 kts | 261° |
| 2026-04-26 12:16 | 34.09723 | -116.36331 | 31804 ft | 398 kts | 261° |
| 2026-04-26 12:16 | 34.09356 | -116.39655 | 31436 ft | 400 kts | 260° |
| 2026-04-26 12:16 | 34.09006 | -116.42936 | 31073 ft | 401 kts | 261° |
| 2026-04-26 12:17 | 34.08651 | -116.46262 | 30709 ft | 403 kts | 261° |
| 2026-04-26 12:17 | 34.08294 | -116.49628 | 30328 ft | 404 kts | 261° |
| 2026-04-26 12:17 | 34.07938 | -116.52984 | 29942 ft | 406 kts | 261° |
| 2026-04-26 12:17 | 34.07578 | -116.56336 | 29523 ft | 404 kts | 261° |
| 2026-04-26 12:18 | 34.07226 | -116.59681 | 29110 ft | 395 kts | 262° |
| 2026-04-26 12:18 | 34.06921 | -116.62929 | 28719 ft | 388 kts | 262° |
| 2026-04-26 12:18 | 34.06635 | -116.66109 | 28310 ft | 381 kts | 262° |
| 2026-04-26 12:18 | 34.06341 | -116.69241 | 27919 ft | 374 kts | 262° |
| 2026-04-26 12:19 | 34.06050 | -116.72311 | 27530 ft | 366 kts | 262° |
| 2026-04-26 12:19 | 34.05764 | -116.75312 | 27184 ft | 354 kts | 262° |
| 2026-04-26 12:19 | 34.05499 | -116.78201 | 26946 ft | 345 kts | 262° |
| 2026-04-26 12:19 | 34.05231 | -116.81084 | 27002 ft | 346 kts | 262° |
| 2026-04-26 12:20 | 34.04962 | -116.83987 | 26774 ft | 351 kts | 262° |
| 2026-04-26 12:20 | 34.04690 | -116.86902 | 26392 ft | 351 kts | 263° |
| 2026-04-26 12:20 | 34.04421 | -116.89807 | 26004 ft | 348 kts | 262° |
| 2026-04-26 12:20 | 34.04057 | -116.92679 | 25665 ft | 344 kts | 259° |
| 2026-04-26 12:21 | 34.03654 | -116.95493 | 25318 ft | 343 kts | 260° |
| 2026-04-26 12:21 | 34.03267 | -116.98329 | 24953 ft | 339 kts | 261° |
| 2026-04-26 12:21 | 34.02914 | -117.01110 | 24614 ft | 338 kts | 261° |
| 2026-04-26 12:21 | 34.02557 | -117.03923 | 24282 ft | 338 kts | 261° |
| 2026-04-26 12:22 | 34.02226 | -117.06715 | 23960 ft | 338 kts | 262° |
| 2026-04-26 12:22 | 34.01901 | -117.09502 | 23626 ft | 337 kts | 262° |
| 2026-04-26 12:22 | 34.01577 | -117.12279 | 23289 ft | 336 kts | 262° |
| 2026-04-26 12:22 | 34.01241 | -117.15076 | 22951 ft | 335 kts | 262° |
| 2026-04-26 12:23 | 34.00911 | -117.17828 | 22611 ft | 335 kts | 262° |
| 2026-04-26 12:23 | 34.00581 | -117.20617 | 22275 ft | 335 kts | 262° |
| 2026-04-26 12:23 | 34.00258 | -117.23387 | 21940 ft | 334 kts | 262° |
| 2026-04-26 12:23 | 33.99923 | -117.26141 | 21606 ft | 332 kts | 262° |
| 2026-04-26 12:24 | 33.99597 | -117.28857 | 21279 ft | 331 kts | 262° |
| 2026-04-26 12:24 | 33.99275 | -117.31587 | 20948 ft | 329 kts | 262° |
| 2026-04-26 12:24 | 33.98953 | -117.34329 | 20621 ft | 327 kts | 262° |
| 2026-04-26 12:25 | 33.98311 | -117.39727 | 19984 ft | 324 kts | 262° |
| 2026-04-26 12:25 | 33.98000 | -117.42380 | 19674 ft | 323 kts | 263° |
| 2026-04-26 12:25 | 33.97739 | -117.44590 | 19414 ft | 321 kts | 263° |
| 2026-04-26 12:26 | 33.97581 | -117.46104 | 19224 ft | 318 kts | 265° |
| 2026-04-26 12:26 | 33.97511 | -117.48721 | 18923 ft | 308 kts | 271° |
| 2026-04-26 12:26 | 33.97712 | -117.51273 | 18680 ft | 303 kts | 277° |
| 2026-04-26 12:26 | 33.98088 | -117.53741 | 18402 ft | 303 kts | 280° |
| 2026-04-26 12:27 | 33.98541 | -117.56239 | 18124 ft | 304 kts | 281° |
| 2026-04-26 12:27 | 33.99006 | -117.58734 | 17857 ft | 306 kts | 280° |
| 2026-04-26 12:27 | 33.99451 | -117.61214 | 17590 ft | 307 kts | 280° |
| 2026-04-26 12:27 | 33.99899 | -117.63738 | 17305 ft | 307 kts | 280° |
| 2026-04-26 12:28 | 34.00311 | -117.66222 | 16998 ft | 301 kts | 276° |
| 2026-04-26 12:28 | 34.00497 | -117.68694 | 16755 ft | 289 kts | 269° |
| 2026-04-26 12:28 | 34.00436 | -117.71037 | 16451 ft | 277 kts | 264° |
| 2026-04-26 12:28 | 34.00229 | -117.73311 | 16329 ft | 271 kts | 263° |
| 2026-04-26 12:29 | 33.99990 | -117.75573 | 16043 ft | 276 kts | 263° |
| 2026-04-26 12:29 | 33.99752 | -117.77878 | 15731 ft | 277 kts | 263° |
| 2026-04-26 12:29 | 33.99301 | -117.82378 | 15070 ft | 261 kts | 263° |
| 2026-04-26 12:30 | 33.99090 | -117.84513 | 14839 ft | 256 kts | 263° |
| 2026-04-26 12:30 | 33.98886 | -117.86643 | 14600 ft | 259 kts | 264° |
| 2026-04-26 12:30 | 33.98683 | -117.88809 | 14377 ft | 264 kts | 264° |
| 2026-04-26 12:31 | 33.98251 | -117.93231 | 13875 ft | 264 kts | 263° |
| 2026-04-26 12:31 | 33.98041 | -117.95426 | 13458 ft | 264 kts | 265° |
| 2026-04-26 12:31 | 33.97896 | -117.97587 | 12986 ft | 259 kts | 265° |
| 2026-04-26 12:31 | 33.97734 | -117.99723 | 12540 ft | 256 kts | 264° |
| 2026-04-26 12:32 | 33.97533 | -118.01868 | 12033 ft | 257 kts | 263° |
| 2026-04-26 12:32 | 33.97313 | -118.03960 | 11376 ft | 250 kts | 263° |
| 2026-04-26 12:32 | 33.96877 | -118.07980 | 10012 ft | 234 kts | 264° |
| 2026-04-26 12:33 | 33.96677 | -118.09871 | 9399 ft | 224 kts | 264° |
| 2026-04-26 12:33 | 33.96488 | -118.11687 | 8848 ft | 217 kts | 264° |
| 2026-04-26 12:33 | 33.96304 | -118.13454 | 8181 ft | 210 kts | 264° |
| 2026-04-26 12:33 | 33.96127 | -118.15153 | 7495 ft | 205 kts | 264° |
| 2026-04-26 12:34 | 33.95953 | -118.16838 | 6801 ft | 202 kts | 264° |
| 2026-04-26 12:34 | 33.95782 | -118.18486 | 6071 ft | 201 kts | 264° |
| 2026-04-26 12:34 | 33.95616 | -118.20093 | 5322 ft | 202 kts | 264° |
| 2026-04-26 12:34 | 33.95443 | -118.21753 | 4543 ft | 203 kts | 264° |
| 2026-04-26 12:35 | 33.95271 | -118.23418 | 3801 ft | 200 kts | 264° |
| 2026-04-26 12:35 | 33.95105 | -118.24993 | 3286 ft | 194 kts | 264° |
| 2026-04-26 12:35 | 33.94938 | -118.26624 | 2570 ft | 190 kts | 264° |
| 2026-04-26 12:35 | 33.94784 | -118.28110 | 2238 ft | 171 kts | 264° |
| 2026-04-26 12:36 | 33.94642 | -118.29491 | 1801 ft | 168 kts | 264° |
| 2026-04-26 12:36 | 33.94513 | -118.30903 | 1327 ft | 168 kts | 266° |
| 2026-04-26 12:36 | 33.94385 | -118.32267 | 1066 ft | 158 kts | 263° |
| 2026-04-26 12:36 | 33.94236 | -118.33558 | 923 ft | 158 kts | 263° |
| 2026-04-26 12:37 | 33.94082 | -118.34891 | 701 ft | 161 kts | 263° |
| 2026-04-26 12:37 | 33.93936 | -118.36203 | 477 ft | 161 kts | 263° |
| 2026-04-26 12:37 | 33.93797 | -118.37524 | 264 ft | 161 kts | 264° |
| 2026-04-26 12:37 | 33.93665 | -118.38841 | 109 ft | 156 kts | 263° |
| 2026-04-26 12:38 | 33.93572 | -118.39808 | 118 ft | 67 kts | 264° |
| 2026-04-26 12:38 | 33.93507 | -118.40147 | 124 ft | 31 kts | 233° |
| 2026-04-26 12:38 | 33.93424 | -118.40099 | 123 ft | 16 kts | 76° |
| 2026-04-26 12:38 | 33.93446 | -118.39980 | 121 ft | 12 kts | 80° |
| 2026-04-26 12:39 | 33.93460 | -118.39884 | 120 ft | 10 kts | 82° |
| 2026-04-26 12:39 | 33.93462 | -118.39801 | 118 ft | 9 kts | 89° |
| 2026-04-26 12:39 | 33.93466 | -118.39732 | 117 ft | 7 kts | 83° |
| 2026-04-26 12:39 | 33.93473 | -118.39674 | 116 ft | 6 kts | 81° |
| 2026-04-26 12:40 | 33.93478 | -118.39625 | 115 ft | 4 kts | 83° |
| 2026-04-26 12:40 | 33.93481 | -118.39600 | 115 ft | 1 kts | 83° |
| 2026-04-26 12:40 | 33.93481 | -118.39597 | 115 ft | 0 kts | 83° |
| 2026-04-26 12:40 | 33.93483 | -118.39583 | 115 ft | 4 kts | 82° |
| 2026-04-26 12:41 | 33.93490 | -118.39515 | 115 ft | 11 kts | 85° |
| 2026-04-26 12:41 | 33.93500 | -118.39391 | 112 ft | 17 kts | 83° |
| 2026-04-26 12:41 | 33.93515 | -118.39235 | 111 ft | 20 kts | 83° |
| 2026-04-26 12:41 | 33.93511 | -118.39061 | 111 ft | 21 kts | 99° |
| 2026-04-26 12:42 | 33.93485 | -118.38888 | 109 ft | 18 kts | 128° |
| 2026-04-26 12:42 | 33.93402 | -118.38844 | 108 ft | 2 kts | 171° |